Brooksville, Kentucky
Current Conditions -  °F | °C
As of 6:15 AM on Friday 28 Nov 2014 (Local Time) from KFGX Reporting Station
Overcast Overcast  
Wind Chill: 23°   Ceiling: 3800
Heat Index: 23°   Visibility: 10mi
Dew Point: 21°   Wind: 3mph
Humidity: 91%   Direction: 250°WSW
Pressure: 30.42"   Gusts: NA
Location:  38.68°N, 84.07°W
Report Text: KFGX 281115Z AUTO 25003KT 10SM OVC038 M05/M06 A3042 RMK AO2 T10501063
Loading
Personal Weather Stations






























Interactive Weather Map New forecast layout! Learn more

10-Day Weather Forecast

Advertisements
Track Severe Weather on mobile